Time;durP1;ratioP1;P1;durP2;ratioP2;P2;SDS_P1;SDS_P2;PMS_P1;PMS_P2;Temp;Humidity;BMP_temperature;BMP_pressure;BME280_temperature;BME280_humidity;BME280_pressure;Samples;Min_cycle;Max_cycle;Signal;HPM_P1;HPM_P2
2021/12/27 07:15:41;;;;;;;;;;;;;;;8.35;88.04;99532.94;5027458;27;3433021;-71
2021/12/27 07:18:09;;;;;;;;;;;;;;;8.40;87.60;99540.78;5149126;27;1350;-71
2021/12/27 07:20:37;;;;;;;;;;;;;;;8.39;88.09;99537.25;5150341;27;842;-71
2021/12/27 07:23:04;;;;;;;;;;;;;;;8.49;87.35;99532.97;5148867;27;1976;-71
2021/12/27 07:25:30;;;;;;;;;;;;;;;8.30;86.09;99534.13;5150179;27;822;-71
2021/12/27 07:27:57;;;;;;;;;;;;;;;8.24;86.95;99535.69;5150481;27;842;-71
2021/12/27 07:30:24;;;;;;;;;;;;;;;8.29;87.22;99531.75;5150086;27;893;-71
2021/12/27 07:32:50;;;;;;;;;;;;;;;8.31;86.07;99532.16;5150420;27;818;-71
2021/12/27 07:35:17;;;;;;;;;;;;;;;8.18;87.00;99534.50;5149981;27;850;-72
2021/12/27 07:37:43;;;;;;;;;;;;;;;8.06;86.42;99527.41;5150031;27;877;-71
2021/12/27 07:40:10;;;;;;;;;;;;;;;7.94;86.63;99525.84;5149941;27;795;-71
2021/12/27 07:42:36;;;;;;;;;;;;;;;7.98;86.51;99529.38;5149938;27;802;-71
2021/12/27 07:45:03;;;;;;;;;;;;;;;8.04;85.76;99531.72;5150099;27;1952;-71
2021/12/27 07:47:30;;;;;;;;;;;;;;;8.16;86.15;99531.34;5149818;27;834;-71
2021/12/27 07:49:56;;;;;;;;;;;;;;;8.30;85.76;99520.34;5149756;27;806;-71
2021/12/27 07:52:23;;;;;;;;;;;;;;;8.42;85.44;99521.94;5148343;27;1256;-71
2021/12/27 07:54:49;;;;;;;;;;;;;;;8.38;85.67;99527.44;5148510;27;878;-71
2021/12/27 07:57:16;;;;;;;;;;;;;;;8.48;86.02;99528.63;5149600;27;882;-71
2021/12/27 07:59:47;;;;;;;;;;;;;;;8.64;85.76;99525.47;5149608;27;842;-70
2021/12/27 08:02:14;;;;;;;;;;;;;;;8.96;84.42;99528.16;5149526;27;834;-70
2021/12/27 08:04:41;;;;;;;;;;;;;;;9.11;83.58;99530.84;5148190;27;1889;-70
2021/12/27 08:07:08;;;;;;;;;;;;;;;9.35;83.17;99527.22;5149372;27;839;-70
2021/12/27 08:09:35;;;;;;;;;;;;;;;9.60;82.77;99526.31;5149403;27;869;-70
2021/12/27 08:12:02;;;;;;;;;;;;;;;9.76;81.94;99521.09;5149373;27;830;-69
2021/12/27 08:14:28;;;;;;;;;;;;;;;9.91;81.74;99519.03;5147505;27;1201;-69
2021/12/27 08:16:55;;;;;;;;;;;;;;;10.13;80.71;99522.41;5135183;27;870;-69
2021/12/27 08:19:22;;;;;;;;;;;;;;;10.27;80.37;99520.75;5135379;27;1040;-69
2021/12/27 08:21:47;;;;;;;;;;;;;;;10.37;80.07;99514.34;5135603;27;811;-69
2021/12/27 08:24:14;;;;;;;;;;;;;;;10.48;79.79;99508.75;5135229;27;1905;-69
2021/12/27 08:26:41;;;;;;;;;;;;;;;10.65;78.96;99518.84;5135335;27;846;-70
2021/12/27 08:29:10;;;;;;;;;;;;;;;10.92;78.89;99509.88;5135158;27;882;-70
2021/12/27 08:31:37;;;;;;;;;;;;;;;11.43;77.75;99513.63;5135244;27;834;-70
2021/12/27 08:34:03;;;;;;;;;;;;;;;11.99;76.40;99507.72;5133735;27;1270;-70
2021/12/27 08:36:30;;;;;;;;;;;;;;;12.28;74.90;99498.97;5135345;27;894;-71
2021/12/27 08:38:57;;;;;;;;;;;;;;;12.51;74.59;99501.72;5135049;27;851;-71
2021/12/27 08:41:30;;;;;;;;;;;;;;;12.71;74.42;99490.66;5134978;27;862;-71
2021/12/27 09:47:57;;;;;;;;;;;;;;;12.15;75.61;99418.44;4992858;28;1476;-74
2021/12/27 09:50:27;;;;;;;;;;;;;;;12.16;75.54;99409.69;4975982;28;893;-74
2021/12/27 09:52:53;;;;;;;;;;;;;;;12.16;75.68;99408.91;4976003;28;1298;-74
2021/12/27 09:55:20;;;;;;;;;;;;;;;12.20;75.86;99413.16;4992945;28;813;-75
2021/12/27 09:57:46;;;;;;;;;;;;;;;12.71;75.37;99401.94;4993387;28;825;-74
2021/12/27 10:00:13;;;;;;;;;;;;;;;13.26;73.95;99403.16;4993259;28;793;-75
2021/12/27 10:02:40;;;;;;;;;;;;;;;13.68;72.77;99395.06;4993152;28;887;-75
2021/12/27 10:05:06;;;;;;;;;;;;;;;13.92;72.30;99386.56;4992721;28;1914;-74
2021/12/27 10:07:35;;;;;;;;;;;;;;;14.18;71.67;99386.69;4992741;28;892;-75
2021/12/27 10:10:01;;;;;;;;;;;;;;;14.00;72.10;99387.16;4975373;28;1203;-75
2021/12/27 10:12:28;;;;;;;;;;;;;;;13.70;73.07;99386.31;4992699;28;937;-74
2021/12/27 10:14:56;;;;;;;;;;;;;;;13.53;73.87;99391.09;4992660;28;919;-74
2021/12/27 10:17:23;;;;;;;;;;;;;;;13.62;74.68;99384.94;4992769;28;793;-74
2021/12/27 10:19:51;;;;;;;;;;;;;;;14.41;72.58;99388.47;4992552;28;809;-75
2021/12/27 10:22:17;;;;;;;;;;;;;;;14.47;71.86;99372.81;4975167;28;1458;-75
2021/12/27 10:24:45;;;;;;;;;;;;;;;14.46;71.91;99374.78;4992343;28;1943;-75
2021/12/27 10:27:12;;;;;;;;;;;;;;;14.52;70.52;99368.72;4992548;28;816;-75
2021/12/27 10:29:39;;;;;;;;;;;;;;;14.56;71.20;99361.84;4974959;28;1076;-76
2021/12/27 10:32:09;;;;;;;;;;;;;;;14.42;71.90;99356.66;4975145;28;1225;-75
2021/12/27 10:34:38;;;;;;;;;;;;;;;14.46;71.44;99352.56;4975052;28;2016;-74
2021/12/27 10:37:06;;;;;;;;;;;;;;;14.60;71.41;99361.75;4992904;28;1036;-74
2021/12/27 10:39:45;;;;;;;;;;;;;;;14.60;71.10;99353.44;4992201;28;875;-74
2021/12/27 10:42:14;;;;;;;;;;;;;;;14.73;71.14;99350.66;4992326;28;864;-73
2021/12/27 10:44:41;;;;;;;;;;;;;;;14.70;70.60;99343.97;4992192;28;1890;-72
2021/12/27 10:47:26;;;;;;;;;;;;;;;14.42;71.16;99346.34;4991986;28;1272;-72
2021/12/27 10:49:54;;;;;;;;;;;;;;;14.20;71.93;99346.13;4974872;28;1259;-73
2021/12/27 10:52:39;;;;;;;;;;;;;;;14.22;72.00;99334.56;4974893;28;1091;-72
2021/12/27 10:55:06;;;;;;;;;;;;;;;13.82;72.78;99340.38;4974640;28;1052;-72
2021/12/27 10:57:33;;;;;;;;;;;;;;;13.54;73.82;99342.66;4974906;28;1098;-73
2021/12/27 11:00:18;;;;;;;;;;;;;;;13.35;74.26;99338.75;4974830;28;875;-74
2021/12/27 11:02:45;;;;;;;;;;;;;;;13.18;75.24;99337.13;4991989;28;897;-74
2021/12/27 11:05:16;;;;;;;;;;;;;;;13.47;74.86;99334.50;4974516;28;1986;-74
2021/12/27 11:07:43;;;;;;;;;;;;;;;13.70;73.49;99330.78;4992248;28;829;-74
2021/12/27 11:10:10;;;;;;;;;;;;;;;13.59;73.17;99327.47;4991980;28;899;-74
2021/12/27 11:12:37;;;;;;;;;;;;;;;13.55;73.61;99340.66;4991943;28;837;-74
2021/12/27 11:15:03;;;;;;;;;;;;;;;13.65;73.23;99334.06;4992022;28;817;-74
2021/12/27 11:17:30;;;;;;;;;;;;;;;13.65;73.16;99334.84;4991913;28;840;-74
2021/12/27 11:19:56;;;;;;;;;;;;;;;13.77;73.05;99330.59;4991811;28;864;-74
2021/12/27 11:22:48;;;;;;;;;;;;;;;13.94;72.53;99330.56;4991802;28;848;-73
2021/12/27 11:25:23;;;;;;;;;;;;;;;14.13;72.03;99321.31;4991713;28;1950;-74
2021/12/27 11:27:50;;;;;;;;;;;;;;;14.85;71.17;99322.88;4974882;28;1507;-74
2021/12/27 11:30:23;;;;;;;;;;;;;;;15.55;69.18;99314.72;4974422;28;1340;-74
2021/12/27 11:33:06;;;;;;;;;;;;;;;15.69;67.76;99313.47;4991726;28;797;-74
2021/12/27 11:41:31;;;;;;;;;;;;;;;14.85;68.22;99291.47;5546220;23;1978;-75
2021/12/27 11:44:17;;;;;;;;;;;;;;;14.90;67.94;99294.50;4993385;28;1903;-74
2021/12/27 11:46:51;;;;;;;;;;;;;;;14.88;67.94;99291.38;4993962;28;1292;-74
2021/12/27 11:49:37;;;;;;;;;;;;;;;15.03;67.79;99290.94;5011304;28;828;-74
2021/12/27 11:52:33;;;;;;;;;;;;;;;15.36;67.39;99282.31;5014628;28;1038;-73
2021/12/27 11:55:14;;;;;;;;;;;;;;;15.70;66.11;99285.16;4998518;28;1591;-74
2021/12/27 11:57:45;;;;;;;;;;;;;;;16.07;65.27;99291.06;4997333;28;1074;-74
2021/12/27 12:00:26;;;;;;;;;;;;;;;16.30;64.46;99278.69;5014862;28;791;-74
2021/12/27 12:02:54;;;;;;;;;;;;;;;16.20;64.59;99296.59;5014982;28;787;-74
2021/12/27 12:05:47;;;;;;;;;;;;;;;16.10;65.17;99278.25;4996907;28;1293;-74
2021/12/27 12:08:15;;;;;;;;;;;;;;;16.03;65.24;99284.06;5014707;28;848;-74
2021/12/27 12:10:51;;;;;;;;;;;;;;;16.01;64.95;99281.72;4997228;28;1276;-74
2021/12/27 12:13:21;;;;;;;;;;;;;;;16.21;64.03;99286.22;4997546;28;1484;-74
2021/12/27 12:16:05;;;;;;;;;;;;;;;16.30;63.72;99280.69;4997592;28;1067;-74
2021/12/27 12:21:37;;;;;;;;;;;;;;;16.38;63.80;99276.41;5014376;28;1239;-74
2021/12/27 12:24:05;;;;;;;;;;;;;;;16.58;64.21;99276.09;4996952;28;1936;-74
2021/12/27 12:26:50;;;;;;;;;;;;;;;16.60;63.70;99270.84;4997029;28;1185;-74
2021/12/27 12:29:16;;;;;;;;;;;;;;;16.58;63.96;99264.13;4996521;28;1074;-75
2021/12/27 12:31:46;;;;;;;;;;;;;;;16.36;63.96;99255.78;5014156;28;817;-77
2021/12/27 12:34:14;;;;;;;;;;;;;;;16.30;64.50;99263.97;5014875;28;800;-76
2021/12/27 12:36:51;;;;;;;;;;;;;;;16.30;66.00;99252.81;4996283;28;1213;-77
2021/12/27 12:39:21;;;;;;;;;;;;;;;16.12;66.54;99265.41;5014141;28;813;-77
2021/12/27 12:41:51;;;;;;;;;;;;;;;15.97;66.96;99263.59;5013674;28;1184;-78
2021/12/27 12:44:22;;;;;;;;;;;;;;;15.88;67.81;99250.34;5014012;28;1911;-78
2021/12/27 12:50:17;;;;;;;;;;;;;;;15.67;68.17;99260.97;4950393;29;984;-76
2021/12/27 12:52:59;;;;;;;;;;;;;;;15.62;68.78;99267.13;4953490;29;884;-77
2021/12/27 12:55:49;;;;;;;;;;;;;;;15.60;68.89;99264.03;4953660;28;1002;-77
2021/12/27 13:17:26;;;;;;;;;;;;;;;16.32;65.90;99276.25;5013184;28;623;-76
2021/12/27 13:22:56;;;;;;;;;;;;;;;16.07;63.96;99274.34;5013238;28;1176;-74
2021/12/27 13:25:35;;;;;;;;;;;;;;;15.88;63.80;99272.66;5013507;28;875;-74
2021/12/27 13:28:06;;;;;;;;;;;;;;;15.76;64.00;99276.25;5013104;28;867;-74
2021/12/27 13:30:42;;;;;;;;;;;;;;;15.68;63.85;99267.31;5013097;28;848;-74
2021/12/27 13:36:24;;;;;;;;;;;;;;;15.41;64.52;99271.41;5019369;23;1896;-76
2021/12/27 13:42:07;;;;;;;;;;;;;;;14.93;68.44;99270.56;5013037;28;643;-74
2021/12/27 14:03:57;;;;;;;;;;;;;;;14.06;72.68;99266.72;5012755;28;1957;-75
2021/12/27 14:06:23;;;;;;;;;;;;;;;13.92;72.88;99271.88;4995058;28;1173;-75
2021/12/27 14:08:54;;;;;;;;;;;;;;;13.76;73.61;99269.91;5012514;28;828;-75
2021/12/27 14:11:21;;;;;;;;;;;;;;;13.61;73.92;99270.31;5012352;28;824;-74
2021/12/27 14:19:26;;;;;;;;;;;;;;;13.21;75.31;99267.69;5894632;22;1654;-75
2021/12/27 14:21:56;;;;;;;;;;;;;;;13.14;75.75;99262.28;5012113;28;801;-75
2021/12/27 14:27:27;;;;;;;;;;;;;;;13.00;76.38;99265.44;5010798;28;933;-74
2021/12/27 14:30:06;;;;;;;;;;;;;;;12.93;76.63;99269.16;4994541;28;1199;-75
2021/12/27 14:32:34;;;;;;;;;;;;;;;12.84;76.69;99269.75;5012097;28;812;-75
2021/12/27 14:35:17;;;;;;;;;;;;;;;12.85;76.85;99270.53;5011902;28;1057;-75
2021/12/27 14:40:56;;;;;;;;;;;;;;;12.72;77.30;99281.50;5010926;28;686;-74
2021/12/27 14:46:34;;;;;;;;;;;;;;;12.65;77.34;99289.94;5012154;28;1034;-75
2021/12/27 14:49:01;;;;;;;;;;;;;;;12.61;77.72;99284.50;5011779;28;777;-75
2021/12/27 14:51:46;;;;;;;;;;;;;;;12.58;77.86;99284.56;5011852;28;883;-75
2021/12/27 14:54:46;;;;;;;;;;;;;;;12.53;78.25;99290.63;5011773;28;864;-75
2021/12/27 14:57:25;;;;;;;;;;;;;;;12.46;78.13;99292.34;5011579;28;836;-74
2021/12/27 15:02:55;;;;;;;;;;;;;;;12.31;78.49;99280.00;5011730;28;635;-75
2021/12/27 15:08:31;;;;;;;;;;;;;;;12.11;78.98;99281.97;5011850;28;1340;-74
2021/12/27 15:10:58;;;;;;;;;;;;;;;12.00;78.95;99282.19;4994205;28;923;-75
2021/12/27 15:19:20;;;;;;;;;;;;;;;11.82;79.85;99279.69;5147439;23;1524;-74
2021/12/27 15:24:33;;;;;;;;;;;;;;;11.71;79.88;99271.59;5011537;28;1930;-74
2021/12/27 15:26:59;;;;;;;;;;;;;;;11.65;79.84;99276.06;4997807;28;1126;-74
2021/12/27 15:29:49;;;;;;;;;;;;;;;11.59;79.92;99273.00;4997481;28;1347;-74
2021/12/27 15:32:15;;;;;;;;;;;;;;;11.55;80.12;99266.72;4997763;28;1251;-74
2021/12/27 15:34:42;;;;;;;;;;;;;;;11.49;80.62;99270.41;5015361;28;812;-74
2021/12/27 15:37:09;;;;;;;;;;;;;;;11.38;80.86;99267.81;4997434;28;823;-75
2021/12/27 15:39:36;;;;;;;;;;;;;;;11.28;81.21;99271.53;4997877;28;825;-75
2021/12/27 15:42:02;;;;;;;;;;;;;;;11.19;81.38;99269.31;4997768;28;1368;-74
2021/12/27 15:44:29;;;;;;;;;;;;;;;11.13;81.69;99269.00;5015099;28;1886;-74
2021/12/27 15:46:55;;;;;;;;;;;;;;;11.06;81.95;99269.13;5015248;28;911;-74
2021/12/27 15:49:35;;;;;;;;;;;;;;;11.00;82.10;99268.78;4997319;28;1553;-74
2021/12/27 15:52:01;;;;;;;;;;;;;;;10.93;81.91;99268.91;5014888;28;848;-74
2021/12/27 15:54:27;;;;;;;;;;;;;;;10.90;81.96;99274.50;5014835;28;903;-74
2021/12/27 15:56:54;;;;;;;;;;;;;;;10.90;82.34;99282.78;5014614;28;848;-74
2021/12/27 15:59:21;;;;;;;;;;;;;;;10.88;82.28;99268.59;4997623;28;854;-74
2021/12/27 16:01:48;;;;;;;;;;;;;;;10.85;82.51;99272.97;5014786;28;852;-73
2021/12/27 16:04:20;;;;;;;;;;;;;;;10.98;84.46;99273.19;4997075;28;1886;-73
2021/12/27 16:06:47;;;;;;;;;;;;;;;11.22;83.73;99269.25;5014885;28;986;-73
2021/12/27 16:09:13;;;;;;;;;;;;;;;11.49;84.07;99273.19;5014762;28;825;-73
2021/12/27 16:11:40;;;;;;;;;;;;;;;11.71;83.82;99268.03;5014883;28;863;-73
2021/12/27 16:14:07;;;;;;;;;;;;;;;11.84;83.83;99267.00;5015031;28;830;-73
2021/12/27 16:16:35;;;;;;;;;;;;;;;12.02;83.80;99263.16;5015218;28;772;-73
2021/12/27 16:19:02;;;;;;;;;;;;;;;12.11;83.74;99259.81;5014527;28;1271;-73
2021/12/27 16:21:28;;;;;;;;;;;;;;;12.10;84.01;99263.75;5014657;28;924;-73
2021/12/27 16:23:55;;;;;;;;;;;;;;;12.07;84.15;99270.94;5014638;28;1906;-73
2021/12/27 16:26:22;;;;;;;;;;;;;;;12.00;83.65;99271.88;5014776;28;840;-73
2021/12/27 16:28:50;;;;;;;;;;;;;;;11.87;84.05;99265.38;4997223;28;879;-73
2021/12/27 16:31:17;;;;;;;;;;;;;;;11.77;84.49;99263.56;5014440;28;986;-73
2021/12/27 16:33:44;;;;;;;;;;;;;;;11.70;84.30;99266.50;4980678;28;807;-72
2021/12/27 16:36:11;;;;;;;;;;;;;;;11.59;84.29;99269.44;4996221;28;1359;-73
2021/12/27 16:38:38;;;;;;;;;;;;;;;11.44;84.38;99272.44;5014565;28;875;-73
2021/12/27 16:41:05;;;;;;;;;;;;;;;11.32;84.65;99266.75;4997072;28;857;-73
2021/12/27 16:43:31;;;;;;;;;;;;;;;11.19;85.10;99263.78;5014243;28;1937;-73
2021/12/27 16:45:58;;;;;;;;;;;;;;;11.11;85.60;99268.63;5014319;28;836;-72
2021/12/27 16:48:25;;;;;;;;;;;;;;;11.14;85.20;99269.81;4996592;28;935;-72
2021/12/27 16:50:52;;;;;;;;;;;;;;;11.19;85.74;99270.09;4996545;28;1019;-73
2021/12/27 16:53:19;;;;;;;;;;;;;;;11.17;85.66;99275.25;5014103;28;880;-72
2021/12/27 16:55:47;;;;;;;;;;;;;;;11.06;85.91;99265.56;5014299;28;777;-72
2021/12/27 16:58:13;;;;;;;;;;;;;;;10.97;85.67;99274.41;5014025;28;867;-72
2021/12/27 17:00:41;;;;;;;;;;;;;;;10.89;86.00;99273.72;5014021;28;898;-73
2021/12/27 17:03:09;;;;;;;;;;;;;;;10.83;86.40;99270.63;5013855;28;1882;-72
2021/12/27 17:05:37;;;;;;;;;;;;;;;10.85;86.32;99277.75;4996633;28;1126;-73
2021/12/27 17:08:04;;;;;;;;;;;;;;;10.72;86.57;99272.78;4995963;28;936;-73
2021/12/27 17:10:31;;;;;;;;;;;;;;;10.64;86.81;99274.06;5013612;28;896;-72
2021/12/27 17:13:00;;;;;;;;;;;;;;;10.61;86.75;99261.09;5013444;28;824;-72
2021/12/27 17:15:30;;;;;;;;;;;;;;;10.61;86.89;99266.63;5013430;28;904;-72
2021/12/27 17:17:59;;;;;;;;;;;;;;;10.59;86.84;99271.78;5013223;28;1277;-72
2021/12/27 17:20:26;;;;;;;;;;;;;;;10.56;87.17;99267.88;5013327;28;867;-72
2021/12/27 17:22:52;;;;;;;;;;;;;;;10.66;87.30;99266.13;5013584;28;816;-72
2021/12/27 17:25:19;;;;;;;;;;;;;;;10.70;87.04;99271.63;4995824;28;1906;-73
2021/12/27 17:27:46;;;;;;;;;;;;;;;10.65;86.98;99272.88;4995622;28;868;-72
2021/12/27 17:30:12;;;;;;;;;;;;;;;10.67;87.30;99270.47;5013344;28;805;-72
2021/12/27 17:32:39;;;;;;;;;;;;;;;10.70;87.37;99275.16;4995603;28;793;-73
2021/12/27 17:35:06;;;;;;;;;;;;;;;10.68;87.40;99269.28;5013109;28;828;-72
2021/12/27 17:37:33;;;;;;;;;;;;;;;10.63;87.37;99273.28;4995714;28;1054;-73
2021/12/27 17:39:59;;;;;;;;;;;;;;;10.55;87.80;99273.78;4995493;28;829;-73
2021/12/27 17:42:25;;;;;;;;;;;;;;;10.46;88.18;99273.53;5013092;28;1014;-72
2021/12/27 17:44:51;;;;;;;;;;;;;;;10.41;88.35;99266.47;5013055;28;1882;-72
2021/12/27 17:47:18;;;;;;;;;;;;;;;10.40;88.35;99270.44;5012544;28;883;-72
2021/12/27 17:49:45;;;;;;;;;;;;;;;10.39;88.60;99266.91;5012658;28;858;-72
2021/12/27 17:52:11;;;;;;;;;;;;;;;10.32;88.11;99266.97;5012874;28;864;-72
2021/12/27 17:54:38;;;;;;;;;;;;;;;10.30;89.16;99265.81;5012780;28;888;-72
2021/12/27 17:57:04;;;;;;;;;;;;;;;10.47;89.77;99264.03;5012905;28;911;-72
2021/12/27 17:59:31;;;;;;;;;;;;;;;10.51;89.64;99265.53;4994994;28;872;-73
2021/12/27 18:01:58;;;;;;;;;;;;;;;10.61;90.04;99259.09;5012589;28;830;-72
2021/12/27 18:04:28;;;;;;;;;;;;;;;10.73;89.91;99263.28;5012410;28;1886;-72
2021/12/27 18:06:55;;;;;;;;;;;;;;;10.77;89.48;99257.69;5012538;28;931;-72
2021/12/27 18:09:22;;;;;;;;;;;;;;;10.74;89.83;99248.25;5012441;28;884;-72
2021/12/27 18:11:48;;;;;;;;;;;;;;;10.90;89.84;99257.91;5012533;28;829;-72
2021/12/27 18:14:16;;;;;;;;;;;;;;;10.93;89.44;99251.56;5012465;28;833;-72
2021/12/27 18:16:43;;;;;;;;;;;;;;;10.90;89.52;99246.84;5012308;28;932;-72
2021/12/27 18:19:10;;;;;;;;;;;;;;;10.86;89.34;99255.22;4994605;28;1408;-72
2021/12/27 18:21:37;;;;;;;;;;;;;;;10.80;89.49;99254.88;4994768;28;813;-72
2021/12/27 18:24:04;;;;;;;;;;;;;;;10.74;89.67;99248.25;5012257;28;1894;-72
2021/12/27 18:26:30;;;;;;;;;;;;;;;10.72;89.55;99247.88;5012236;28;828;-72
2021/12/27 18:28:57;;;;;;;;;;;;;;;10.70;89.44;99244.75;5012223;28;828;-72
2021/12/27 18:31:24;;;;;;;;;;;;;;;10.67;89.46;99237.31;5012102;28;960;-72
2021/12/27 18:33:52;;;;;;;;;;;;;;;10.66;89.70;99238.50;5012136;28;879;-72
2021/12/27 18:36:19;;;;;;;;;;;;;;;10.67;89.83;99239.28;5012029;28;840;-72
2021/12/27 18:38:46;;;;;;;;;;;;;;;10.63;89.63;99244.88;5012026;28;875;-72
2021/12/27 18:41:13;;;;;;;;;;;;;;;10.63;90.07;99236.59;5012027;28;848;-72
2021/12/27 18:43:40;;;;;;;;;;;;;;;10.69;90.07;99245.16;5011878;28;1902;-72
2021/12/27 18:46:06;;;;;;;;;;;;;;;10.68;89.79;99238.88;5011876;28;871;-72
2021/12/27 18:48:33;;;;;;;;;;;;;;;10.66;90.02;99235.72;5011853;28;775;-73
2021/12/27 18:51:00;;;;;;;;;;;;;;;10.72;89.86;99228.53;5012394;28;805;-72
2021/12/27 18:53:26;;;;;;;;;;;;;;;10.74;89.91;99234.44;5011838;28;903;-73
2021/12/27 18:55:58;;;;;;;;;;;;;;;10.70;89.83;99228.19;4994087;28;864;-72
2021/12/27 18:58:25;;;;;;;;;;;;;;;10.70;89.84;99232.94;5011794;28;860;-72
2021/12/27 19:00:52;;;;;;;;;;;;;;;10.78;90.25;99228.88;5011700;28;828;-73
2021/12/27 19:03:19;;;;;;;;;;;;;;;10.89;89.85;99228.69;4993981;28;1974;-73
2021/12/27 19:05:46;;;;;;;;;;;;;;;10.96;89.71;99225.81;5011647;28;899;-72
2021/12/27 19:08:13;;;;;;;;;;;;;;;10.97;89.66;99224.63;5011678;28;829;-73
2021/12/27 19:10:39;;;;;;;;;;;;;;;10.98;89.65;99226.94;4994096;28;1277;-73
2021/12/27 19:13:06;;;;;;;;;;;;;;;11.12;89.66;99231.50;5011658;28;892;-72
2021/12/27 19:15:33;;;;;;;;;;;;;;;11.20;89.29;99238.47;4994303;28;1280;-72
2021/12/27 19:17:59;;;;;;;;;;;;;;;11.18;89.10;99240.06;5011411;28;1405;-73
2021/12/27 19:20:26;;;;;;;;;;;;;;;11.03;88.83;99239.53;5011870;28;824;-72
2021/12/27 19:22:53;;;;;;;;;;;;;;;10.90;89.50;99235.78;5011462;28;959;-72
2021/12/27 19:25:21;;;;;;;;;;;;;;;10.93;89.29;99235.75;4994046;28;1910;-72
2021/12/27 19:27:48;;;;;;;;;;;;;;;11.10;89.82;99244.97;5011385;28;856;-72
2021/12/27 19:30:15;;;;;;;;;;;;;;;11.24;89.02;99244.72;5011538;28;876;-73
2021/12/27 19:32:42;;;;;;;;;;;;;;;11.27;89.07;99240.34;5011726;28;872;-73
2021/12/27 19:35:12;;;;;;;;;;;;;;;11.29;88.99;99229.63;5011427;28;928;-73
2021/12/27 19:37:39;;;;;;;;;;;;;;;11.35;88.87;99230.72;5011434;28;809;-73
2021/12/27 19:40:07;;;;;;;;;;;;;;;11.40;88.29;99237.75;5011384;28;817;-72
2021/12/27 19:42:33;;;;;;;;;;;;;;;11.39;88.33;99234.22;5011268;28;801;-72
2021/12/27 19:45:00;;;;;;;;;;;;;;;11.38;87.94;99246.47;5011316;28;1886;-72
2021/12/27 19:47:26;;;;;;;;;;;;;;;11.34;88.49;99239.44;5011571;28;809;-72
2021/12/27 19:49:53;;;;;;;;;;;;;;;11.38;88.18;99238.16;4993921;28;1340;-73
2021/12/27 19:52:19;;;;;;;;;;;;;;;11.35;88.21;99233.47;5011210;28;816;-73
2021/12/27 19:54:46;;;;;;;;;;;;;;;11.36;88.38;99234.25;5011158;28;821;-73
2021/12/27 19:57:12;;;;;;;;;;;;;;;11.41;88.03;99239.31;4993750;28;1043;-72
2021/12/27 19:59:38;;;;;;;;;;;;;;;11.39;87.86;99230.63;5011195;28;817;-73
2021/12/27 20:02:05;;;;;;;;;;;;;;;11.40;87.44;99226.69;5011275;28;833;-73
2021/12/27 20:04:31;;;;;;;;;;;;;;;11.36;87.81;99223.19;5011029;28;1886;-73
2021/12/27 20:06:58;;;;;;;;;;;;;;;11.28;87.72;99232.81;4993656;28;842;-73
2021/12/27 20:09:25;;;;;;;;;;;;;;;11.24;87.80;99227.31;5011116;28;820;-73
2021/12/27 20:11:52;;;;;;;;;;;;;;;11.20;88.35;99227.41;5012908;28;828;-72
2021/12/27 20:14:20;;;;;;;;;;;;;;;11.16;88.19;99225.88;5014666;28;874;-73
2021/12/27 20:16:46;;;;;;;;;;;;;;;11.15;88.64;99225.09;5014400;28;1056;-73
2021/12/27 20:19:13;;;;;;;;;;;;;;;11.18;88.52;99221.50;5014382;28;1322;-73
2021/12/27 20:21:40;;;;;;;;;;;;;;;11.14;89.08;99214.47;5014417;28;867;-73
2021/12/27 20:24:07;;;;;;;;;;;;;;;11.11;88.97;99213.31;5014381;28;1974;-72
2021/12/27 20:26:35;;;;;;;;;;;;;;;11.00;88.58;99209.94;5014383;28;865;-72
2021/12/27 20:29:03;;;;;;;;;;;;;;;10.93;88.97;99204.53;5014289;28;884;-72
2021/12/27 20:31:32;;;;;;;;;;;;;;;10.86;89.39;99205.44;4996959;28;1156;-72
2021/12/27 20:33:58;;;;;;;;;;;;;;;10.83;89.57;99207.03;5014215;28;1233;-72
2021/12/27 20:36:25;;;;;;;;;;;;;;;10.81;89.63;99209.44;4996865;28;870;-72
2021/12/27 20:38:51;;;;;;;;;;;;;;;10.87;90.38;99208.97;5014205;28;817;-72
2021/12/27 20:41:18;;;;;;;;;;;;;;;10.93;90.08;99207.31;4996528;28;1205;-72
2021/12/27 20:43:45;;;;;;;;;;;;;;;10.98;90.16;99210.38;5014014;28;1885;-72
2021/12/27 20:46:11;;;;;;;;;;;;;;;10.99;90.08;99213.94;5014080;28;836;-72
2021/12/27 20:48:38;;;;;;;;;;;;;;;11.04;90.30;99216.97;5013986;28;899;-72
2021/12/27 20:51:04;;;;;;;;;;;;;;;11.09;90.29;99220.47;5014110;28;877;-72
2021/12/27 20:53:33;;;;;;;;;;;;;;;11.15;90.20;99229.88;5013909;28;863;-72
2021/12/27 20:55:59;;;;;;;;;;;;;;;11.19;90.06;99219.53;5013865;28;920;-72
2021/12/27 20:58:29;;;;;;;;;;;;;;;11.22;89.97;99218.66;5013752;28;935;-72
2021/12/27 21:00:55;;;;;;;;;;;;;;;11.24;89.77;99222.59;5013782;28;872;-72
2021/12/27 21:03:23;;;;;;;;;;;;;;;11.26;89.86;99222.16;5013679;28;1890;-72
2021/12/27 21:05:53;;;;;;;;;;;;;;;11.33;89.88;99227.59;5013883;28;812;-72
2021/12/27 21:08:21;;;;;;;;;;;;;;;11.41;89.58;99219.94;4996038;28;1162;-72
2021/12/27 21:10:49;;;;;;;;;;;;;;;11.41;89.28;99222.69;5013941;28;796;-72
2021/12/27 21:13:16;;;;;;;;;;;;;;;11.46;88.90;99222.22;5013479;28;944;-72
2021/12/27 21:15:43;;;;;;;;;;;;;;;11.53;88.72;99222.09;4996037;28;1388;-72
2021/12/27 21:18:09;;;;;;;;;;;;;;;11.49;88.29;99213.06;5013064;28;1368;-72
2021/12/27 21:20:36;;;;;;;;;;;;;;;11.45;88.58;99207.59;5013320;28;817;-72
2021/12/27 21:23:03;;;;;;;;;;;;;;;11.50;88.36;99214.66;5013299;28;875;-72
2021/12/27 21:25:30;;;;;;;;;;;;;;;11.64;88.24;99222.66;4995903;28;1959;-72
2021/12/27 21:27:57;;;;;;;;;;;;;;;11.77;87.90;99222.06;5013225;28;872;-72
2021/12/27 21:30:23;;;;;;;;;;;;;;;11.84;87.65;99214.41;5013276;28;900;-72
2021/12/27 21:32:50;;;;;;;;;;;;;;;11.87;87.31;99207.22;4995529;28;876;-72
2021/12/27 21:35:17;;;;;;;;;;;;;;;11.80;87.30;99202.63;5013211;28;829;-72
2021/12/27 21:37:44;;;;;;;;;;;;;;;11.75;87.04;99203.09;5013046;28;828;-72
2021/12/27 21:40:14;;;;;;;;;;;;;;;11.79;87.10;99200.25;4995335;28;1306;-72
2021/12/27 21:42:41;;;;;;;;;;;;;;;11.74;87.38;99206.31;5013220;28;844;-72
2021/12/27 21:45:08;;;;;;;;;;;;;;;11.74;87.06;99209.84;5013105;28;1894;-72
2021/12/27 21:47:42;;;;;;;;;;;;;;;11.74;87.01;99212.63;5012973;28;868;-72
2021/12/27 21:50:16;;;;;;;;;;;;;;;11.75;87.46;99213.38;5012726;28;835;-72
2021/12/27 21:52:44;;;;;;;;;;;;;;;11.72;86.98;99205.94;5012895;28;907;-72
2021/12/27 21:55:11;;;;;;;;;;;;;;;11.62;87.07;99205.69;4995486;28;1181;-72
2021/12/27 21:57:39;;;;;;;;;;;;;;;11.57;87.19;99205.44;5012670;28;872;-72
2021/12/27 22:00:07;;;;;;;;;;;;;;;11.54;87.56;99200.72;5012721;28;915;-72
2021/12/27 22:02:33;;;;;;;;;;;;;;;11.57;87.67;99205.44;5012700;28;946;-72
2021/12/27 22:05:00;;;;;;;;;;;;;;;11.56;87.62;99199.09;5012568;28;1890;-72
2021/12/27 22:07:27;;;;;;;;;;;;;;;11.57;87.58;99197.13;5012512;28;892;-72
2021/12/27 22:09:54;;;;;;;;;;;;;;;11.54;87.17;99189.66;5012540;28;896;-72
2021/12/27 22:12:20;;;;;;;;;;;;;;;11.46;87.09;99194.56;4995334;28;1198;-72
2021/12/27 22:14:47;;;;;;;;;;;;;;;11.37;87.37;99194.31;5012464;28;848;-72
2021/12/27 22:17:13;;;;;;;;;;;;;;;11.27;87.92;99189.78;4992550;28;1387;-72
2021/12/27 22:19:40;;;;;;;;;;;;;;;11.18;88.06;99190.28;4992677;28;832;-72
2021/12/27 22:22:05;;;;;;;;;;;;;;;11.14;88.35;99195.91;4992893;28;925;-72
2021/12/27 22:24:32;;;;;;;;;;;;;;;11.11;88.45;99193.19;4992604;28;1914;-72
2021/12/27 22:26:59;;;;;;;;;;;;;;;11.09;88.77;99185.31;4994291;28;1059;-72
2021/12/27 22:29:25;;;;;;;;;;;;;;;11.07;88.45;99190.47;5012186;28;836;-72
2021/12/27 22:31:52;;;;;;;;;;;;;;;11.10;89.12;99189.66;5012179;28;820;-72
2021/12/27 22:34:21;;;;;;;;;;;;;;;11.16;88.96;99192.69;5011687;28;812;-72
2021/12/27 22:36:47;;;;;;;;;;;;;;;11.18;88.79;99191.09;5012073;28;1001;-72
2021/12/27 22:39:13;;;;;;;;;;;;;;;11.20;89.22;99185.13;4994367;28;1296;-72
2021/12/27 22:41:40;;;;;;;;;;;;;;;11.20;88.97;99185.91;5011990;28;871;-72
2021/12/27 22:44:06;;;;;;;;;;;;;;;11.21;88.83;99183.94;5011936;28;1891;-72
2021/12/27 22:46:33;;;;;;;;;;;;;;;11.22;88.91;99180.75;5012031;28;824;-72
2021/12/27 22:49:00;;;;;;;;;;;;;;;11.21;88.83;99181.94;5011757;28;860;-72
2021/12/27 22:51:27;;;;;;;;;;;;;;;11.21;88.91;99176.41;5011831;28;884;-72
2021/12/27 22:53:54;;;;;;;;;;;;;;;11.24;89.25;99175.56;5011893;28;817;-72
2021/12/27 22:56:20;;;;;;;;;;;;;;;11.29;88.81;99163.25;5011752;28;862;-72
2021/12/27 22:58:46;;;;;;;;;;;;;;;11.34;88.77;99173.03;5011884;28;825;-72
2021/12/27 23:01:13;;;;;;;;;;;;;;;11.34;88.91;99168.28;5011929;28;859;-72